sensor_id;sensor_type;location;lat;lon;timestamp;P1;durP1;ratioP1;P2;durP2;ratioP2
12660;SDS011;39039;51.802;5.710;2022-10-31T00:02:06;18.47;;;8.03;;
12660;SDS011;39039;51.802;5.710;2022-10-31T00:04:35;15.40;;;7.70;;
12660;SDS011;39039;51.802;5.710;2022-10-31T00:07:02;13.97;;;8.03;;
12660;SDS011;39039;51.802;5.710;2022-10-31T00:09:29;14.07;;;8.07;;
12660;SDS011;39039;51.802;5.710;2022-10-31T00:11:56;14.80;;;7.90;;
12660;SDS011;39039;51.802;5.710;2022-10-31T00:14:23;14.87;;;8.23;;
12660;SDS011;39039;51.802;5.710;2022-10-31T00:16:49;12.80;;;7.20;;
12660;SDS011;39039;51.802;5.710;2022-10-31T00:19:16;17.93;;;8.63;;
12660;SDS011;39039;51.802;5.710;2022-10-31T00:21:45;17.33;;;8.50;;
12660;SDS011;39039;51.802;5.710;2022-10-31T00:24:12;15.30;;;8.73;;
12660;SDS011;39039;51.802;5.710;2022-10-31T00:26:39;13.87;;;8.13;;
12660;SDS011;39039;51.802;5.710;2022-10-31T00:29:06;16.93;;;9.57;;
12660;SDS011;39039;51.802;5.710;2022-10-31T00:31:33;14.40;;;8.47;;
12660;SDS011;39039;51.802;5.710;2022-10-31T00:34:00;20.20;;;8.57;;
12660;SDS011;39039;51.802;5.710;2022-10-31T00:36:28;18.40;;;8.23;;
12660;SDS011;39039;51.802;5.710;2022-10-31T00:38:57;12.43;;;7.70;;
12660;SDS011;39039;51.802;5.710;2022-10-31T00:41:26;14.27;;;7.50;;
12660;SDS011;39039;51.802;5.710;2022-10-31T00:43:54;14.70;;;8.07;;
12660;SDS011;39039;51.802;5.710;2022-10-31T00:46:21;16.43;;;8.40;;
12660;SDS011;39039;51.802;5.710;2022-10-31T00:48:48;15.10;;;8.17;;
12660;SDS011;39039;51.802;5.710;2022-10-31T00:51:15;20.63;;;7.83;;
12660;SDS011;39039;51.802;5.710;2022-10-31T00:53:42;15.20;;;8.43;;
12660;SDS011;39039;51.802;5.710;2022-10-31T00:56:10;12.40;;;8.00;;
12660;SDS011;39039;51.802;5.710;2022-10-31T00:58:37;16.47;;;8.63;;
12660;SDS011;39039;51.802;5.710;2022-10-31T01:01:04;16.57;;;9.17;;
12660;SDS011;39039;51.802;5.710;2022-10-31T01:03:31;13.83;;;8.03;;
12660;SDS011;39039;51.802;5.710;2022-10-31T01:05:59;20.07;;;9.27;;
12660;SDS011;39039;51.802;5.710;2022-10-31T01:08:27;15.40;;;9.07;;
12660;SDS011;39039;51.802;5.710;2022-10-31T01:10:58;16.00;;;9.73;;
12660;SDS011;39039;51.802;5.710;2022-10-31T01:13:26;22.93;;;9.90;;
12660;SDS011;39039;51.802;5.710;2022-10-31T01:15:54;18.27;;;10.07;;
12660;SDS011;39039;51.802;5.710;2022-10-31T01:18:21;17.27;;;9.37;;
12660;SDS011;39039;51.802;5.710;2022-10-31T01:20:56;17.90;;;8.80;;
12660;SDS011;39039;51.802;5.710;2022-10-31T01:23:23;19.47;;;9.50;;
12660;SDS011;39039;51.802;5.710;2022-10-31T01:25:57;20.30;;;10.07;;
12660;SDS011;39039;51.802;5.710;2022-10-31T01:28:24;14.13;;;9.27;;
12660;SDS011;39039;51.802;5.710;2022-10-31T01:30:53;15.07;;;8.73;;
12660;SDS011;39039;51.802;5.710;2022-10-31T01:33:20;19.00;;;9.80;;
12660;SDS011;39039;51.802;5.710;2022-10-31T01:35:47;18.90;;;10.50;;
12660;SDS011;39039;51.802;5.710;2022-10-31T01:38:13;16.93;;;9.83;;
12660;SDS011;39039;51.802;5.710;2022-10-31T01:40:40;20.53;;;9.47;;
12660;SDS011;39039;51.802;5.710;2022-10-31T01:43:09;23.03;;;10.90;;
12660;SDS011;39039;51.802;5.710;2022-10-31T01:45:36;22.30;;;10.83;;
12660;SDS011;39039;51.802;5.710;2022-10-31T01:48:04;16.30;;;9.20;;
12660;SDS011;39039;51.802;5.710;2022-10-31T01:50:32;20.50;;;9.73;;
12660;SDS011;39039;51.802;5.710;2022-10-31T01:53:02;16.83;;;9.77;;
12660;SDS011;39039;51.802;5.710;2022-10-31T01:55:30;24.17;;;10.60;;
12660;SDS011;39039;51.802;5.710;2022-10-31T01:57:59;20.57;;;10.77;;
12660;SDS011;39039;51.802;5.710;2022-10-31T02:00:28;17.97;;;10.17;;
12660;SDS011;39039;51.802;5.710;2022-10-31T02:02:55;19.80;;;9.97;;
12660;SDS011;39039;51.802;5.710;2022-10-31T02:05:26;21.53;;;10.47;;
12660;SDS011;39039;51.802;5.710;2022-10-31T02:07:55;18.67;;;10.33;;
12660;SDS011;39039;51.802;5.710;2022-10-31T02:10:23;19.43;;;9.57;;
12660;SDS011;39039;51.802;5.710;2022-10-31T02:12:51;18.47;;;10.53;;
12660;SDS011;39039;51.802;5.710;2022-10-31T02:15:18;17.03;;;9.73;;
12660;SDS011;39039;51.802;5.710;2022-10-31T02:17:45;19.10;;;10.50;;
12660;SDS011;39039;51.802;5.710;2022-10-31T02:20:14;19.27;;;10.53;;
12660;SDS011;39039;51.802;5.710;2022-10-31T02:22:48;20.20;;;9.97;;
12660;SDS011;39039;51.802;5.710;2022-10-31T02:25:30;19.97;;;10.50;;
12660;SDS011;39039;51.802;5.710;2022-10-31T02:28:08;24.53;;;11.40;;
12660;SDS011;39039;51.802;5.710;2022-10-31T02:31:01;16.10;;;9.77;;
12660;SDS011;39039;51.802;5.710;2022-10-31T02:33:34;27.27;;;10.57;;
12660;SDS011;39039;51.802;5.710;2022-10-31T02:36:08;17.53;;;10.13;;
12660;SDS011;39039;51.802;5.710;2022-10-31T02:38:42;22.07;;;10.83;;
12660;SDS011;39039;51.802;5.710;2022-10-31T02:41:15;20.83;;;11.13;;
12660;SDS011;39039;51.802;5.710;2022-10-31T02:43:43;22.03;;;11.87;;
12660;SDS011;39039;51.802;5.710;2022-10-31T02:46:14;20.23;;;11.40;;
12660;SDS011;39039;51.802;5.710;2022-10-31T02:48:46;20.50;;;11.83;;
12660;SDS011;39039;51.802;5.710;2022-10-31T02:51:15;23.57;;;11.10;;
12660;SDS011;39039;51.802;5.710;2022-10-31T02:53:43;19.27;;;11.30;;
12660;SDS011;39039;51.802;5.710;2022-10-31T02:56:12;22.40;;;11.47;;
12660;SDS011;39039;51.802;5.710;2022-10-31T02:58:40;25.40;;;11.10;;
12660;SDS011;39039;51.802;5.710;2022-10-31T03:03:55;22.33;;;10.73;;
12660;SDS011;39039;51.802;5.710;2022-10-31T03:06:25;19.33;;;11.60;;
12660;SDS011;39039;51.802;5.710;2022-10-31T03:09:00;22.40;;;11.93;;
12660;SDS011;39039;51.802;5.710;2022-10-31T03:11:29;23.17;;;12.07;;
12660;SDS011;39039;51.802;5.710;2022-10-31T03:13:59;21.13;;;11.57;;
12660;SDS011;39039;51.802;5.710;2022-10-31T03:16:28;21.70;;;11.93;;
12660;SDS011;39039;51.802;5.710;2022-10-31T03:18:57;22.90;;;12.17;;
12660;SDS011;39039;51.802;5.710;2022-10-31T03:21:26;24.03;;;11.70;;
12660;SDS011;39039;51.802;5.710;2022-10-31T03:23:54;21.77;;;12.27;;
12660;SDS011;39039;51.802;5.710;2022-10-31T03:26:23;21.97;;;10.97;;
12660;SDS011;39039;51.802;5.710;2022-10-31T03:28:52;27.67;;;13.20;;
12660;SDS011;39039;51.802;5.710;2022-10-31T03:31:20;23.63;;;11.90;;
12660;SDS011;39039;51.802;5.710;2022-10-31T03:33:49;30.00;;;13.73;;
12660;SDS011;39039;51.802;5.710;2022-10-31T03:36:19;23.50;;;13.07;;
12660;SDS011;39039;51.802;5.710;2022-10-31T03:38:47;26.63;;;14.20;;
12660;SDS011;39039;51.802;5.710;2022-10-31T03:41:16;32.90;;;15.50;;
12660;SDS011;39039;51.802;5.710;2022-10-31T03:43:46;37.90;;;15.70;;
12660;SDS011;39039;51.802;5.710;2022-10-31T03:46:14;33.77;;;16.00;;
12660;SDS011;39039;51.802;5.710;2022-10-31T03:48:41;31.30;;;15.33;;
12660;SDS011;39039;51.802;5.710;2022-10-31T03:51:10;25.10;;;13.63;;
12660;SDS011;39039;51.802;5.710;2022-10-31T03:53:43;26.97;;;13.43;;
12660;SDS011;39039;51.802;5.710;2022-10-31T03:56:12;24.53;;;13.73;;
12660;SDS011;39039;51.802;5.710;2022-10-31T03:58:48;23.33;;;12.50;;
12660;SDS011;39039;51.802;5.710;2022-10-31T04:01:19;24.27;;;14.00;;
12660;SDS011;39039;51.802;5.710;2022-10-31T04:03:47;26.50;;;13.40;;
12660;SDS011;39039;51.802;5.710;2022-10-31T04:06:15;21.53;;;11.57;;
12660;SDS011;39039;51.802;5.710;2022-10-31T04:08:45;23.30;;;12.80;;
12660;SDS011;39039;51.802;5.710;2022-10-31T04:11:14;25.53;;;12.67;;
12660;SDS011;39039;51.802;5.710;2022-10-31T04:13:45;29.50;;;13.53;;
12660;SDS011;39039;51.802;5.710;2022-10-31T04:16:13;28.57;;;13.63;;
12660;SDS011;39039;51.802;5.710;2022-10-31T04:18:40;39.20;;;16.27;;
12660;SDS011;39039;51.802;5.710;2022-10-31T04:21:08;32.10;;;15.57;;
12660;SDS011;39039;51.802;5.710;2022-10-31T04:23:35;27.37;;;14.13;;
12660;SDS011;39039;51.802;5.710;2022-10-31T04:26:04;30.30;;;14.03;;
12660;SDS011;39039;51.802;5.710;2022-10-31T04:28:31;33.17;;;15.13;;
12660;SDS011;39039;51.802;5.710;2022-10-31T04:30:58;23.80;;;12.67;;
12660;SDS011;39039;51.802;5.710;2022-10-31T04:33:25;31.30;;;14.23;;
12660;SDS011;39039;51.802;5.710;2022-10-31T04:35:52;29.13;;;13.07;;
12660;SDS011;39039;51.802;5.710;2022-10-31T04:38:19;26.57;;;13.23;;
12660;SDS011;39039;51.802;5.710;2022-10-31T04:40:46;27.13;;;13.60;;
12660;SDS011;39039;51.802;5.710;2022-10-31T04:43:15;28.40;;;13.50;;
12660;SDS011;39039;51.802;5.710;2022-10-31T04:45:42;22.37;;;13.20;;
12660;SDS011;39039;51.802;5.710;2022-10-31T04:48:09;22.83;;;11.80;;
12660;SDS011;39039;51.802;5.710;2022-10-31T04:50:36;22.77;;;13.13;;
12660;SDS011;39039;51.802;5.710;2022-10-31T04:53:03;33.13;;;13.20;;
12660;SDS011;39039;51.802;5.710;2022-10-31T04:55:30;26.77;;;13.10;;
12660;SDS011;39039;51.802;5.710;2022-10-31T04:57:57;21.37;;;12.23;;
12660;SDS011;39039;51.802;5.710;2022-10-31T05:00:26;21.93;;;13.23;;
12660;SDS011;39039;51.802;5.710;2022-10-31T05:02:53;28.13;;;13.57;;
12660;SDS011;39039;51.802;5.710;2022-10-31T05:05:22;32.07;;;14.77;;
12660;SDS011;39039;51.802;5.710;2022-10-31T05:07:49;25.93;;;13.43;;
12660;SDS011;39039;51.802;5.710;2022-10-31T05:10:17;30.90;;;13.83;;
12660;SDS011;39039;51.802;5.710;2022-10-31T05:12:46;28.83;;;13.60;;
12660;SDS011;39039;51.802;5.710;2022-10-31T05:15:13;30.27;;;13.23;;
12660;SDS011;39039;51.802;5.710;2022-10-31T05:17:42;21.03;;;11.70;;
12660;SDS011;39039;51.802;5.710;2022-10-31T05:20:09;25.90;;;12.77;;
12660;SDS011;39039;51.802;5.710;2022-10-31T05:22:36;21.03;;;11.47;;
12660;SDS011;39039;51.802;5.710;2022-10-31T05:25:07;18.73;;;10.33;;
12660;SDS011;39039;51.802;5.710;2022-10-31T05:27:34;18.83;;;11.00;;
12660;SDS011;39039;51.802;5.710;2022-10-31T05:30:02;19.23;;;10.93;;
12660;SDS011;39039;51.802;5.710;2022-10-31T05:32:29;21.90;;;11.83;;
12660;SDS011;39039;51.802;5.710;2022-10-31T05:34:57;23.53;;;12.03;;
12660;SDS011;39039;51.802;5.710;2022-10-31T05:37:24;22.30;;;12.80;;
12660;SDS011;39039;51.802;5.710;2022-10-31T05:39:51;22.03;;;12.33;;
12660;SDS011;39039;51.802;5.710;2022-10-31T05:42:18;25.00;;;11.77;;
12660;SDS011;39039;51.802;5.710;2022-10-31T05:44:45;27.07;;;13.00;;
12660;SDS011;39039;51.802;5.710;2022-10-31T05:47:12;22.87;;;13.17;;
12660;SDS011;39039;51.802;5.710;2022-10-31T05:49:39;31.20;;;14.13;;
12660;SDS011;39039;51.802;5.710;2022-10-31T05:52:07;22.83;;;13.10;;
12660;SDS011;39039;51.802;5.710;2022-10-31T05:54:34;24.77;;;12.50;;
12660;SDS011;39039;51.802;5.710;2022-10-31T05:57:01;24.10;;;13.40;;
12660;SDS011;39039;51.802;5.710;2022-10-31T05:59:28;23.60;;;12.13;;
12660;SDS011;39039;51.802;5.710;2022-10-31T06:01:55;32.03;;;14.83;;
12660;SDS011;39039;51.802;5.710;2022-10-31T06:04:22;23.93;;;13.30;;
12660;SDS011;39039;51.802;5.710;2022-10-31T06:06:49;25.93;;;13.17;;
12660;SDS011;39039;51.802;5.710;2022-10-31T06:09:17;25.67;;;13.57;;
12660;SDS011;39039;51.802;5.710;2022-10-31T06:11:44;22.87;;;12.63;;
12660;SDS011;39039;51.802;5.710;2022-10-31T06:14:11;26.30;;;12.30;;
12660;SDS011;39039;51.802;5.710;2022-10-31T06:16:38;35.37;;;15.93;;
12660;SDS011;39039;51.802;5.710;2022-10-31T06:19:05;23.60;;;13.07;;
12660;SDS011;39039;51.802;5.710;2022-10-31T06:21:32;26.13;;;13.03;;
12660;SDS011;39039;51.802;5.710;2022-10-31T06:23:59;21.60;;;12.23;;
12660;SDS011;39039;51.802;5.710;2022-10-31T06:26:27;26.43;;;14.00;;
12660;SDS011;39039;51.802;5.710;2022-10-31T06:28:54;22.83;;;12.53;;
12660;SDS011;39039;51.802;5.710;2022-10-31T06:31:21;22.87;;;13.83;;
12660;SDS011;39039;51.802;5.710;2022-10-31T06:33:48;23.77;;;13.23;;
12660;SDS011;39039;51.802;5.710;2022-10-31T06:36:15;23.40;;;12.57;;
12660;SDS011;39039;51.802;5.710;2022-10-31T06:38:42;26.07;;;14.07;;
12660;SDS011;39039;51.802;5.710;2022-10-31T06:41:09;26.40;;;13.73;;
12660;SDS011;39039;51.802;5.710;2022-10-31T06:43:41;27.77;;;13.87;;
12660;SDS011;39039;51.802;5.710;2022-10-31T06:46:08;21.87;;;12.80;;
12660;SDS011;39039;51.802;5.710;2022-10-31T06:48:35;24.07;;;12.27;;
12660;SDS011;39039;51.802;5.710;2022-10-31T06:51:02;21.43;;;11.30;;
12660;SDS011;39039;51.802;5.710;2022-10-31T06:53:29;26.57;;;12.00;;
12660;SDS011;39039;51.802;5.710;2022-10-31T06:55:56;20.83;;;11.40;;
12660;SDS011;39039;51.802;5.710;2022-10-31T06:58:23;18.97;;;10.87;;
12660;SDS011;39039;51.802;5.710;2022-10-31T07:00:51;26.70;;;12.30;;
12660;SDS011;39039;51.802;5.710;2022-10-31T07:03:18;21.47;;;12.10;;
12660;SDS011;39039;51.802;5.710;2022-10-31T07:05:46;18.10;;;12.03;;
12660;SDS011;39039;51.802;5.710;2022-10-31T07:08:13;18.80;;;11.00;;
12660;SDS011;39039;51.802;5.710;2022-10-31T07:10:41;19.20;;;11.00;;
12660;SDS011;39039;51.802;5.710;2022-10-31T07:13:10;23.60;;;12.40;;
12660;SDS011;39039;51.802;5.710;2022-10-31T07:15:38;25.53;;;12.53;;
12660;SDS011;39039;51.802;5.710;2022-10-31T07:18:07;30.60;;;14.80;;
12660;SDS011;39039;51.802;5.710;2022-10-31T07:20:35;21.47;;;12.60;;
12660;SDS011;39039;51.802;5.710;2022-10-31T07:23:02;25.33;;;14.00;;
12660;SDS011;39039;51.802;5.710;2022-10-31T07:25:29;29.77;;;14.93;;
12660;SDS011;39039;51.802;5.710;2022-10-31T07:27:56;24.33;;;14.13;;
12660;SDS011;39039;51.802;5.710;2022-10-31T07:30:23;25.67;;;14.80;;
12660;SDS011;39039;51.802;5.710;2022-10-31T07:32:50;30.17;;;14.77;;
12660;SDS011;39039;51.802;5.710;2022-10-31T07:35:19;29.53;;;15.93;;
12660;SDS011;39039;51.802;5.710;2022-10-31T07:37:46;30.77;;;17.03;;
12660;SDS011;39039;51.802;5.710;2022-10-31T07:40:13;32.43;;;16.83;;
12660;SDS011;39039;51.802;5.710;2022-10-31T07:42:41;34.33;;;17.37;;
12660;SDS011;39039;51.802;5.710;2022-10-31T07:45:09;31.60;;;18.03;;
12660;SDS011;39039;51.802;5.710;2022-10-31T07:47:39;37.00;;;17.57;;
12660;SDS011;39039;51.802;5.710;2022-10-31T07:50:15;37.77;;;16.90;;
12660;SDS011;39039;51.802;5.710;2022-10-31T07:52:44;35.90;;;18.13;;
12660;SDS011;39039;51.802;5.710;2022-10-31T07:55:11;32.83;;;16.53;;
12660;SDS011;39039;51.802;5.710;2022-10-31T07:57:38;30.47;;;17.27;;
12660;SDS011;39039;51.802;5.710;2022-10-31T08:00:06;31.50;;;15.73;;
12660;SDS011;39039;51.802;5.710;2022-10-31T08:02:34;35.27;;;17.43;;
12660;SDS011;39039;51.802;5.710;2022-10-31T08:05:01;28.07;;;16.93;;
12660;SDS011;39039;51.802;5.710;2022-10-31T08:07:29;30.13;;;17.03;;
12660;SDS011;39039;51.802;5.710;2022-10-31T08:10:03;36.07;;;17.13;;
12660;SDS011;39039;51.802;5.710;2022-10-31T08:12:30;26.63;;;16.07;;
12660;SDS011;39039;51.802;5.710;2022-10-31T08:14:57;38.07;;;16.83;;
12660;SDS011;39039;51.802;5.710;2022-10-31T08:17:24;33.13;;;17.60;;
12660;SDS011;39039;51.802;5.710;2022-10-31T08:19:51;34.47;;;16.83;;
12660;SDS011;39039;51.802;5.710;2022-10-31T08:22:18;31.53;;;17.23;;
12660;SDS011;39039;51.802;5.710;2022-10-31T08:24:45;34.60;;;18.83;;
12660;SDS011;39039;51.802;5.710;2022-10-31T08:27:13;29.70;;;16.10;;
12660;SDS011;39039;51.802;5.710;2022-10-31T08:29:40;32.67;;;16.80;;
12660;SDS011;39039;51.802;5.710;2022-10-31T08:32:09;32.83;;;17.20;;
12660;SDS011;39039;51.802;5.710;2022-10-31T08:34:38;30.93;;;16.83;;
12660;SDS011;39039;51.802;5.710;2022-10-31T08:37:05;33.40;;;17.50;;
12660;SDS011;39039;51.802;5.710;2022-10-31T08:39:32;34.80;;;17.97;;
12660;SDS011;39039;51.802;5.710;2022-10-31T08:41:59;33.30;;;17.03;;
12660;SDS011;39039;51.802;5.710;2022-10-31T08:44:28;37.80;;;18.67;;
12660;SDS011;39039;51.802;5.710;2022-10-31T08:46:55;33.30;;;17.27;;
12660;SDS011;39039;51.802;5.710;2022-10-31T08:49:22;36.57;;;18.23;;
12660;SDS011;39039;51.802;5.710;2022-10-31T08:51:49;32.20;;;17.33;;
12660;SDS011;39039;51.802;5.710;2022-10-31T08:54:16;29.07;;;16.93;;
12660;SDS011;39039;51.802;5.710;2022-10-31T08:56:43;32.37;;;16.67;;
12660;SDS011;39039;51.802;5.710;2022-10-31T08:59:13;28.80;;;14.53;;
12660;SDS011;39039;51.802;5.710;2022-10-31T09:01:41;27.90;;;14.47;;
12660;SDS011;39039;51.802;5.710;2022-10-31T09:04:08;28.17;;;13.37;;
12660;SDS011;39039;51.802;5.710;2022-10-31T09:06:35;26.30;;;13.70;;
12660;SDS011;39039;51.802;5.710;2022-10-31T09:09:02;20.00;;;12.83;;
12660;SDS011;39039;51.802;5.710;2022-10-31T09:11:29;24.47;;;13.07;;
12660;SDS011;39039;51.802;5.710;2022-10-31T09:13:56;28.57;;;12.87;;
12660;SDS011;39039;51.802;5.710;2022-10-31T09:16:25;21.30;;;11.83;;
12660;SDS011;39039;51.802;5.710;2022-10-31T09:18:53;24.20;;;12.43;;
12660;SDS011;39039;51.802;5.710;2022-10-31T09:21:20;22.53;;;11.53;;
12660;SDS011;39039;51.802;5.710;2022-10-31T09:23:47;24.57;;;12.70;;
12660;SDS011;39039;51.802;5.710;2022-10-31T09:26:14;20.00;;;11.50;;
12660;SDS011;39039;51.802;5.710;2022-10-31T09:28:41;27.23;;;14.37;;
12660;SDS011;39039;51.802;5.710;2022-10-31T09:31:09;26.33;;;13.90;;
12660;SDS011;39039;51.802;5.710;2022-10-31T09:33:36;28.37;;;14.27;;
12660;SDS011;39039;51.802;5.710;2022-10-31T09:36:05;28.43;;;13.93;;
12660;SDS011;39039;51.802;5.710;2022-10-31T09:38:32;25.97;;;13.17;;
12660;SDS011;39039;51.802;5.710;2022-10-31T09:41:01;27.20;;;13.50;;
12660;SDS011;39039;51.802;5.710;2022-10-31T09:43:39;28.23;;;13.87;;
12660;SDS011;39039;51.802;5.710;2022-10-31T09:46:11;25.33;;;14.00;;
12660;SDS011;39039;51.802;5.710;2022-10-31T09:48:48;28.83;;;14.18;;
12660;SDS011;39039;51.802;5.710;2022-10-31T09:51:19;26.73;;;14.67;;
12660;SDS011;39039;51.802;5.710;2022-10-31T09:53:51;29.33;;;14.90;;
12660;SDS011;39039;51.802;5.710;2022-10-31T09:56:20;33.50;;;15.27;;
12660;SDS011;39039;51.802;5.710;2022-10-31T09:58:49;28.50;;;14.27;;
12660;SDS011;39039;51.802;5.710;2022-10-31T10:01:22;29.88;;;13.80;;
12660;SDS011;39039;51.802;5.710;2022-10-31T10:03:52;28.90;;;14.23;;
12660;SDS011;39039;51.802;5.710;2022-10-31T10:06:23;26.10;;;15.43;;
12660;SDS011;39039;51.802;5.710;2022-10-31T10:08:51;27.35;;;14.57;;
12660;SDS011;39039;51.802;5.710;2022-10-31T10:11:23;29.13;;;13.65;;
12660;SDS011;39039;51.802;5.710;2022-10-31T10:13:55;30.70;;;14.43;;
12660;SDS011;39039;51.802;5.710;2022-10-31T10:16:29;29.60;;;14.70;;
12660;SDS011;39039;51.802;5.710;2022-10-31T10:19:01;25.27;;;13.60;;
12660;SDS011;39039;51.802;5.710;2022-10-31T10:21:34;28.50;;;13.60;;
12660;SDS011;39039;51.802;5.710;2022-10-31T10:24:09;26.25;;;13.13;;
12660;SDS011;39039;51.802;5.710;2022-10-31T10:26:38;28.98;;;14.05;;
12660;SDS011;39039;51.802;5.710;2022-10-31T10:29:11;30.52;;;14.93;;
12660;SDS011;39039;51.802;5.710;2022-10-31T10:31:55;29.20;;;14.45;;
12660;SDS011;39039;51.802;5.710;2022-10-31T10:34:26;25.47;;;13.80;;
12660;SDS011;39039;51.802;5.710;2022-10-31T10:36:58;30.13;;;14.77;;
12660;SDS011;39039;51.802;5.710;2022-10-31T10:39:27;31.77;;;14.37;;
12660;SDS011;39039;51.802;5.710;2022-10-31T10:41:57;30.23;;;15.18;;
12660;SDS011;39039;51.802;5.710;2022-10-31T10:44:43;27.25;;;14.10;;
12660;SDS011;39039;51.802;5.710;2022-10-31T10:47:30;27.23;;;14.43;;
12660;SDS011;39039;51.802;5.710;2022-10-31T10:50:06;30.17;;;14.13;;
12660;SDS011;39039;51.802;5.710;2022-10-31T10:52:37;35.65;;;14.38;;
12660;SDS011;39039;51.802;5.710;2022-10-31T10:55:09;33.13;;;15.13;;
12660;SDS011;39039;51.802;5.710;2022-10-31T10:57:41;31.10;;;14.90;;
12660;SDS011;39039;51.802;5.710;2022-10-31T11:00:15;29.08;;;14.20;;
12660;SDS011;39039;51.802;5.710;2022-10-31T11:02:43;30.33;;;14.18;;
12660;SDS011;39039;51.802;5.710;2022-10-31T11:05:13;33.83;;;14.90;;
12660;SDS011;39039;51.802;5.710;2022-10-31T11:07:49;29.27;;;14.07;;
12660;SDS011;39039;51.802;5.710;2022-10-31T11:10:16;31.85;;;14.45;;
12660;SDS011;39039;51.802;5.710;2022-10-31T11:12:46;28.63;;;13.35;;
12660;SDS011;39039;51.802;5.710;2022-10-31T11:15:24;25.63;;;13.50;;
12660;SDS011;39039;51.802;5.710;2022-10-31T11:17:52;31.80;;;15.07;;
12660;SDS011;39039;51.802;5.710;2022-10-31T11:20:24;33.85;;;15.13;;
12660;SDS011;39039;51.802;5.710;2022-10-31T11:23:02;33.67;;;13.85;;
12660;SDS011;39039;51.802;5.710;2022-10-31T11:25:29;29.30;;;13.45;;
12660;SDS011;39039;51.802;5.710;2022-10-31T11:27:59;29.98;;;13.75;;
12660;SDS011;39039;51.802;5.710;2022-10-31T11:30:27;28.65;;;13.52;;
12660;SDS011;39039;51.802;5.710;2022-10-31T11:32:54;33.25;;;14.05;;
12660;SDS011;39039;51.802;5.710;2022-10-31T11:35:22;29.42;;;13.13;;
12660;SDS011;39039;51.802;5.710;2022-10-31T11:37:50;33.50;;;13.60;;
12660;SDS011;39039;51.802;5.710;2022-10-31T11:40:22;30.05;;;13.65;;
12660;SDS011;39039;51.802;5.710;2022-10-31T11:42:50;31.73;;;14.02;;
12660;SDS011;39039;51.802;5.710;2022-10-31T11:45:28;27.50;;;13.25;;
12660;SDS011;39039;51.802;5.710;2022-10-31T11:47:55;31.38;;;13.10;;
12660;SDS011;39039;51.802;5.710;2022-10-31T11:50:25;28.40;;;14.43;;
12660;SDS011;39039;51.802;5.710;2022-10-31T11:52:52;32.15;;;14.90;;
12660;SDS011;39039;51.802;5.710;2022-10-31T11:55:30;26.33;;;13.88;;
12660;SDS011;39039;51.802;5.710;2022-10-31T11:57:58;23.65;;;13.18;;
12660;SDS011;39039;51.802;5.710;2022-10-31T12:00:26;28.95;;;14.38;;
12660;SDS011;39039;51.802;5.710;2022-10-31T12:03:04;29.33;;;13.75;;
12660;SDS011;39039;51.802;5.710;2022-10-31T12:05:31;26.40;;;13.52;;
12660;SDS011;39039;51.802;5.710;2022-10-31T12:07:59;25.80;;;13.50;;
12660;SDS011;39039;51.802;5.710;2022-10-31T12:10:27;22.45;;;12.60;;
12660;SDS011;39039;51.802;5.710;2022-10-31T12:13:08;24.55;;;12.57;;
12660;SDS011;39039;51.802;5.710;2022-10-31T12:15:46;27.55;;;13.52;;
12660;SDS011;39039;51.802;5.710;2022-10-31T12:21:10;26.50;;;13.10;;
12660;SDS011;39039;51.802;5.710;2022-10-31T12:23:42;28.55;;;12.95;;
12660;SDS011;39039;51.802;5.710;2022-10-31T12:26:15;25.33;;;11.75;;
12660;SDS011;39039;51.802;5.710;2022-10-31T12:28:52;24.67;;;11.82;;
12660;SDS011;39039;51.802;5.710;2022-10-31T12:31:24;24.60;;;11.80;;
12660;SDS011;39039;51.802;5.710;2022-10-31T12:33:55;25.80;;;13.02;;
12660;SDS011;39039;51.802;5.710;2022-10-31T12:36:32;24.27;;;11.95;;
12660;SDS011;39039;51.802;5.710;2022-10-31T12:39:06;26.80;;;11.63;;
12660;SDS011;39039;51.802;5.710;2022-10-31T12:41:45;25.73;;;12.43;;
12660;SDS011;39039;51.802;5.710;2022-10-31T12:44:17;24.05;;;12.85;;
12660;SDS011;39039;51.802;5.710;2022-10-31T12:46:51;27.55;;;11.77;;
12660;SDS011;39039;51.802;5.710;2022-10-31T12:49:35;29.65;;;11.68;;
12660;SDS011;39039;51.802;5.710;2022-10-31T12:52:13;28.35;;;11.88;;
12660;SDS011;39039;51.802;5.710;2022-10-31T12:54:53;23.80;;;11.77;;
12660;SDS011;39039;51.802;5.710;2022-10-31T12:57:26;22.20;;;11.55;;
12660;SDS011;39039;51.802;5.710;2022-10-31T12:59:57;20.67;;;10.93;;
12660;SDS011;39039;51.802;5.710;2022-10-31T13:02:28;21.73;;;10.38;;
12660;SDS011;39039;51.802;5.710;2022-10-31T13:04:56;21.55;;;10.27;;
12660;SDS011;39039;51.802;5.710;2022-10-31T13:07:25;16.67;;;8.75;;
12660;SDS011;39039;51.802;5.710;2022-10-31T13:09:56;20.48;;;9.27;;
12660;SDS011;39039;51.802;5.710;2022-10-31T13:12:25;18.67;;;8.75;;
12660;SDS011;39039;51.802;5.710;2022-10-31T13:14:55;19.65;;;8.95;;
12660;SDS011;39039;51.802;5.710;2022-10-31T13:17:27;19.58;;;9.57;;
12660;SDS011;39039;51.802;5.710;2022-10-31T13:20:00;18.70;;;8.68;;
12660;SDS011;39039;51.802;5.710;2022-10-31T13:22:30;19.67;;;9.48;;
12660;SDS011;39039;51.802;5.710;2022-10-31T13:25:02;23.55;;;8.98;;
12660;SDS011;39039;51.802;5.710;2022-10-31T13:27:44;21.85;;;9.68;;
12660;SDS011;39039;51.802;5.710;2022-10-31T13:30:14;17.88;;;8.25;;
12660;SDS011;39039;51.802;5.710;2022-10-31T13:32:43;25.75;;;9.70;;
12660;SDS011;39039;51.802;5.710;2022-10-31T13:35:14;16.73;;;9.05;;
12660;SDS011;39039;51.802;5.710;2022-10-31T13:37:44;16.52;;;9.02;;
12660;SDS011;39039;51.802;5.710;2022-10-31T13:40:17;23.70;;;9.73;;
12660;SDS011;39039;51.802;5.710;2022-10-31T13:42:55;14.50;;;7.68;;
12660;SDS011;39039;51.802;5.710;2022-10-31T13:45:24;17.48;;;8.30;;
12660;SDS011;39039;51.802;5.710;2022-10-31T13:47:57;18.92;;;8.63;;
12660;SDS011;39039;51.802;5.710;2022-10-31T13:50:25;22.63;;;8.60;;
12660;SDS011;39039;51.802;5.710;2022-10-31T13:53:19;18.80;;;8.63;;
12660;SDS011;39039;51.802;5.710;2022-10-31T13:55:47;18.83;;;8.95;;
12660;SDS011;39039;51.802;5.710;2022-10-31T13:58:22;17.35;;;8.50;;
12660;SDS011;39039;51.802;5.710;2022-10-31T14:01:00;18.38;;;8.65;;
12660;SDS011;39039;51.802;5.710;2022-10-31T14:03:42;20.98;;;8.43;;
12660;SDS011;39039;51.802;5.710;2022-10-31T14:06:11;19.05;;;8.50;;
12660;SDS011;39039;51.802;5.710;2022-10-31T14:08:40;20.58;;;9.57;;
12660;SDS011;39039;51.802;5.710;2022-10-31T14:11:08;20.45;;;9.18;;
12660;SDS011;39039;51.802;5.710;2022-10-31T14:13:36;22.98;;;8.73;;
12660;SDS011;39039;51.802;5.710;2022-10-31T14:16:15;27.85;;;8.70;;
12660;SDS011;39039;51.802;5.710;2022-10-31T14:18:50;21.15;;;8.63;;
12660;SDS011;39039;51.802;5.710;2022-10-31T14:21:26;18.65;;;8.68;;
12660;SDS011;39039;51.802;5.710;2022-10-31T14:23:54;24.67;;;9.15;;
12660;SDS011;39039;51.802;5.710;2022-10-31T14:26:32;21.25;;;9.00;;
12660;SDS011;39039;51.802;5.710;2022-10-31T14:29:02;17.77;;;8.60;;
12660;SDS011;39039;51.802;5.710;2022-10-31T14:31:30;22.83;;;9.63;;
12660;SDS011;39039;51.802;5.710;2022-10-31T14:36:48;23.85;;;9.73;;
12660;SDS011;39039;51.802;5.710;2022-10-31T14:39:18;24.27;;;10.38;;
12660;SDS011;39039;51.802;5.710;2022-10-31T14:41:51;21.88;;;10.25;;
12660;SDS011;39039;51.802;5.710;2022-10-31T14:44:25;25.05;;;9.48;;
12660;SDS011;39039;51.802;5.710;2022-10-31T14:46:57;28.52;;;10.95;;